sensor_id;sensor_type;location;lat;lon;timestamp;pressure;altitude;pressure_sealevel;temperature;humidity
55916;BME280;41826;53.246;-6.670;2023-02-20T00:02:23;101893.94;;;10.18;100.00
55916;BME280;41826;53.246;-6.670;2023-02-20T00:04:49;101898.88;;;10.10;100.00
55916;BME280;41826;53.246;-6.670;2023-02-20T00:07:14;101898.59;;;10.02;100.00
55916;BME280;41826;53.246;-6.670;2023-02-20T00:09:40;101884.00;;;9.97;100.00
55916;BME280;41826;53.246;-6.670;2023-02-20T00:12:05;101887.28;;;10.01;100.00
55916;BME280;41826;53.246;-6.670;2023-02-20T00:14:30;101887.09;;;9.91;100.00
55916;BME280;41826;53.246;-6.670;2023-02-20T00:16:56;101881.63;;;9.94;100.00
55916;BME280;41826;53.246;-6.670;2023-02-20T00:19:21;101885.47;;;10.02;100.00
55916;BME280;41826;53.246;-6.670;2023-02-20T00:21:47;101884.97;;;9.96;100.00
55916;BME280;41826;53.246;-6.670;2023-02-20T00:24:14;101881.63;;;9.94;100.00
55916;BME280;41826;53.246;-6.670;2023-02-20T00:26:51;101882.63;;;9.81;100.00
55916;BME280;41826;53.246;-6.670;2023-02-20T00:29:18;101859.34;;;9.76;100.00
55916;BME280;41826;53.246;-6.670;2023-02-20T00:31:50;101860.06;;;9.78;100.00
55916;BME280;41826;53.246;-6.670;2023-02-20T00:34:16;101868.31;;;9.85;100.00
55916;BME280;41826;53.246;-6.670;2023-02-20T00:36:41;101861.31;;;9.85;100.00
55916;BME280;41826;53.246;-6.670;2023-02-20T00:39:06;101862.66;;;9.91;100.00
55916;BME280;41826;53.246;-6.670;2023-02-20T00:41:32;101869.47;;;9.93;100.00
55916;BME280;41826;53.246;-6.670;2023-02-20T00:43:57;101877.25;;;9.82;100.00
55916;BME280;41826;53.246;-6.670;2023-02-20T00:46:23;101877.56;;;9.90;100.00
55916;BME280;41826;53.246;-6.670;2023-02-20T00:48:48;101881.34;;;9.86;100.00
55916;BME280;41826;53.246;-6.670;2023-02-20T00:51:15;101876.38;;;9.94;100.00
55916;BME280;41826;53.246;-6.670;2023-02-20T00:53:40;101877.59;;;10.02;100.00
55916;BME280;41826;53.246;-6.670;2023-02-20T00:56:06;101881.34;;;9.86;100.00
55916;BME280;41826;53.246;-6.670;2023-02-20T00:58:31;101878.91;;;9.96;100.00
55916;BME280;41826;53.246;-6.670;2023-02-20T01:00:57;101890.53;;;9.92;100.00
55916;BME280;41826;53.246;-6.670;2023-02-20T01:03:22;101885.56;;;10.00;100.00
55916;BME280;41826;53.246;-6.670;2023-02-20T01:05:48;101888.19;;;10.13;100.00
55916;BME280;41826;53.246;-6.670;2023-02-20T01:08:13;101899.59;;;10.12;100.00
55916;BME280;41826;53.246;-6.670;2023-02-20T01:10:39;101897.66;;;10.03;100.00
55916;BME280;41826;53.246;-6.670;2023-02-20T01:13:04;101904.13;;;10.10;100.00
55916;BME280;41826;53.246;-6.670;2023-02-20T01:15:29;101905.00;;;9.97;100.00
55916;BME280;41826;53.246;-6.670;2023-02-20T01:17:55;101893.63;;;10.10;100.00
55916;BME280;41826;53.246;-6.670;2023-02-20T01:20:20;101895.56;;;9.95;100.00
55916;BME280;41826;53.246;-6.670;2023-02-20T01:22:46;101876.59;;;9.91;100.00
55916;BME280;41826;53.246;-6.670;2023-02-20T01:25:11;101877.97;;;9.84;100.00
55916;BME280;41826;53.246;-6.670;2023-02-20T01:27:36;101866.94;;;9.92;100.00
55916;BME280;41826;53.246;-6.670;2023-02-20T01:30:02;101872.09;;;9.93;100.00
55916;BME280;41826;53.246;-6.670;2023-02-20T01:32:27;101878.66;;;9.99;100.00
55916;BME280;41826;53.246;-6.670;2023-02-20T01:34:53;101878.75;;;10.10;100.00
55916;BME280;41826;53.246;-6.670;2023-02-20T01:37:18;101880.97;;;10.04;100.00
55916;BME280;41826;53.246;-6.670;2023-02-20T01:39:46;101886.66;;;10.22;100.00
55916;BME280;41826;53.246;-6.670;2023-02-20T01:42:17;101888.84;;;10.04;100.00
55916;BME280;41826;53.246;-6.670;2023-02-20T01:44:44;101873.31;;;10.01;100.00
55916;BME280;41826;53.246;-6.670;2023-02-20T01:47:18;101885.47;;;10.02;100.00
55916;BME280;41826;53.246;-6.670;2023-02-20T01:49:55;101873.56;;;9.85;100.00
55916;BME280;41826;53.246;-6.670;2023-02-20T01:54:58;101875.31;;;9.97;100.00
55916;BME280;41826;53.246;-6.670;2023-02-20T01:57:28;101881.38;;;9.97;100.00
55916;BME280;41826;53.246;-6.670;2023-02-20T01:59:59;101873.88;;;9.93;100.00
55916;BME280;41826;53.246;-6.670;2023-02-20T02:02:30;101885.44;;;9.90;100.00
55916;BME280;41826;53.246;-6.670;2023-02-20T02:04:57;101878.34;;;10.04;100.00
55916;BME280;41826;53.246;-6.670;2023-02-20T02:07:23;101884.31;;;10.06;100.00
55916;BME280;41826;53.246;-6.670;2023-02-20T02:09:52;101885.06;;;10.08;100.00
55916;BME280;41826;53.246;-6.670;2023-02-20T02:12:21;101897.22;;;10.09;100.00
55916;BME280;41826;53.246;-6.670;2023-02-20T02:14:46;101893.06;;;9.93;100.00
55916;BME280;41826;53.246;-6.670;2023-02-20T02:41:41;101874.25;;;9.99;100.00
55916;BME280;41826;53.246;-6.670;2023-02-20T02:49:43;101857.84;;;10.09;100.00
55916;BME280;41826;53.246;-6.670;2023-02-20T02:52:11;101862.13;;;10.10;100.00
55916;BME280;41826;53.246;-6.670;2023-02-20T02:54:37;101850.47;;;10.14;100.00
55916;BME280;41826;53.246;-6.670;2023-02-20T02:57:22;101853.66;;;10.06;100.00
55916;BME280;41826;53.246;-6.670;2023-02-20T02:59:53;101855.06;;;9.99;100.00
55916;BME280;41826;53.246;-6.670;2023-02-20T03:02:24;101847.91;;;10.01;100.00
55916;BME280;41826;53.246;-6.670;2023-02-20T03:04:52;101844.72;;;10.09;100.00
55916;BME280;41826;53.246;-6.670;2023-02-20T03:07:19;101856.69;;;10.13;100.00
55916;BME280;41826;53.246;-6.670;2023-02-20T03:10:02;101853.56;;;10.08;100.00
55916;BME280;41826;53.246;-6.670;2023-02-20T03:12:29;101853.72;;;10.17;100.00
55916;BME280;41826;53.246;-6.670;2023-02-20T03:15:00;101850.75;;;10.22;100.00
55916;BME280;41826;53.246;-6.670;2023-02-20T03:18:06;101851.28;;;10.03;100.00
55916;BME280;41826;53.246;-6.670;2023-02-20T03:20:41;101855.34;;;10.07;100.00
55916;BME280;41826;53.246;-6.670;2023-02-20T03:23:10;101847.13;;;10.12;100.00
55916;BME280;41826;53.246;-6.670;2023-02-20T03:26:00;101854.81;;;10.02;100.00
55916;BME280;41826;53.246;-6.670;2023-02-20T03:28:31;101847.25;;;10.10;100.00
55916;BME280;41826;53.246;-6.670;2023-02-20T03:31:15;101854.09;;;10.24;100.00
55916;BME280;41826;53.246;-6.670;2023-02-20T03:37:05;101866.94;;;10.29;100.00
55916;BME280;41826;53.246;-6.670;2023-02-20T03:39:52;101865.34;;;10.26;100.00
55916;BME280;41826;53.246;-6.670;2023-02-20T03:42:39;101854.34;;;10.21;100.00
55916;BME280;41826;53.246;-6.670;2023-02-20T03:45:25;101852.53;;;10.22;100.00
55916;BME280;41826;53.246;-6.670;2023-02-20T03:47:58;101857.91;;;10.20;100.00
55916;BME280;41826;53.246;-6.670;2023-02-20T03:50:24;101843.13;;;10.19;100.00
55916;BME280;41826;53.246;-6.670;2023-02-20T03:52:50;101844.00;;;10.07;100.00
55916;BME280;41826;53.246;-6.670;2023-02-20T03:55:15;101842.84;;;10.11;100.00
55916;BME280;41826;53.246;-6.670;2023-02-20T03:57:45;101848.97;;;10.23;100.00
55916;BME280;41826;53.246;-6.670;2023-02-20T04:00:23;101849.59;;;10.26;100.00
55916;BME280;41826;53.246;-6.670;2023-02-20T04:02:53;101839.38;;;10.10;100.00
55916;BME280;41826;53.246;-6.670;2023-02-20T04:05:23;101834.78;;;10.25;100.00
55916;BME280;41826;53.246;-6.670;2023-02-20T04:08:07;101827.34;;;10.08;100.00
55916;BME280;41826;53.246;-6.670;2023-02-20T04:10:38;101831.53;;;9.97;100.00
55916;BME280;41826;53.246;-6.670;2023-02-20T04:13:06;101826.88;;;10.14;100.00
55916;BME280;41826;53.246;-6.670;2023-02-20T04:15:32;101820.78;;;10.13;100.00
55916;BME280;41826;53.246;-6.670;2023-02-20T04:18:05;101812.03;;;10.02;100.00
55916;BME280;41826;53.246;-6.670;2023-02-20T04:20:32;101800.72;;;10.12;100.00
55916;BME280;41826;53.246;-6.670;2023-02-20T04:23:04;101803.88;;;9.93;100.00
55916;BME280;41826;53.246;-6.670;2023-02-20T04:25:38;101801.63;;;10.00;100.00
55916;BME280;41826;53.246;-6.670;2023-02-20T04:28:05;101789.56;;;9.97;100.00
55916;BME280;41826;53.246;-6.670;2023-02-20T04:30:31;101792.56;;;9.93;100.00
55916;BME280;41826;53.246;-6.670;2023-02-20T04:32:57;101787.91;;;9.96;100.00
55916;BME280;41826;53.246;-6.670;2023-02-20T04:35:23;101792.72;;;10.03;100.00
55916;BME280;41826;53.246;-6.670;2023-02-20T04:37:48;101789.88;;;10.06;100.00
55916;BME280;41826;53.246;-6.670;2023-02-20T04:40:18;101791.53;;;10.07;100.00
55916;BME280;41826;53.246;-6.670;2023-02-20T04:42:44;101786.34;;;9.94;100.00
55916;BME280;41826;53.246;-6.670;2023-02-20T04:45:09;101786.03;;;9.98;100.00
55916;BME280;41826;53.246;-6.670;2023-02-20T04:47:35;101783.00;;;9.92;100.00
55916;BME280;41826;53.246;-6.670;2023-02-20T04:50:00;101772.91;;;9.98;100.00
55916;BME280;41826;53.246;-6.670;2023-02-20T04:52:26;101775.03;;;9.93;100.00
55916;BME280;41826;53.246;-6.670;2023-02-20T04:54:52;101776.25;;;10.01;100.00
55916;BME280;41826;53.246;-6.670;2023-02-20T04:57:18;101760.22;;;9.92;100.00
55916;BME280;41826;53.246;-6.670;2023-02-20T04:59:44;101767.41;;;9.90;100.00
55916;BME280;41826;53.246;-6.670;2023-02-20T05:02:09;101769.56;;;9.96;100.00
55916;BME280;41826;53.246;-6.670;2023-02-20T05:04:35;101761.78;;;9.95;100.00
55916;BME280;41826;53.246;-6.670;2023-02-20T05:07:00;101772.75;;;9.89;100.00
55916;BME280;41826;53.246;-6.670;2023-02-20T05:09:26;101760.72;;;9.97;100.00
55916;BME280;41826;53.246;-6.670;2023-02-20T05:11:52;101766.38;;;10.04;100.00
55916;BME280;41826;53.246;-6.670;2023-02-20T05:14:18;101768.38;;;10.01;100.00
55916;BME280;41826;53.246;-6.670;2023-02-20T05:16:44;101767.16;;;9.93;100.00
55916;BME280;41826;53.246;-6.670;2023-02-20T05:19:10;101767.66;;;9.98;100.00
55916;BME280;41826;53.246;-6.670;2023-02-20T05:21:36;101769.94;;;10.03;100.00
55916;BME280;41826;53.246;-6.670;2023-02-20T05:24:21;101765.97;;;9.97;100.00
55916;BME280;41826;53.246;-6.670;2023-02-20T05:26:48;101770.78;;;10.04;100.00
55916;BME280;41826;53.246;-6.670;2023-02-20T05:29:13;101778.25;;;9.97;100.00
55916;BME280;41826;53.246;-6.670;2023-02-20T05:31:39;101769.81;;;10.05;100.00
55916;BME280;41826;53.246;-6.670;2023-02-20T05:34:05;101777.63;;;10.17;100.00
55916;BME280;41826;53.246;-6.670;2023-02-20T05:36:31;101780.94;;;10.08;100.00
55916;BME280;41826;53.246;-6.670;2023-02-20T05:38:56;101771.75;;;10.03;100.00
55916;BME280;41826;53.246;-6.670;2023-02-20T05:41:22;101770.09;;;10.13;100.00
55916;BME280;41826;53.246;-6.670;2023-02-20T05:43:47;101781.78;;;10.09;100.00
55916;BME280;41826;53.246;-6.670;2023-02-20T05:46:13;101782.38;;;10.12;100.00
55916;BME280;41826;53.246;-6.670;2023-02-20T05:48:39;101783.06;;;10.03;100.00
55916;BME280;41826;53.246;-6.670;2023-02-20T05:51:05;101770.53;;;10.07;100.00
55916;BME280;41826;53.246;-6.670;2023-02-20T05:53:31;101772.09;;;10.09;100.00
55916;BME280;41826;53.246;-6.670;2023-02-20T05:55:57;101770.69;;;10.05;100.00
55916;BME280;41826;53.246;-6.670;2023-02-20T05:58:23;101763.56;;;9.94;100.00
55916;BME280;41826;53.246;-6.670;2023-02-20T06:00:49;101761.28;;;10.14;100.00
55916;BME280;41826;53.246;-6.670;2023-02-20T06:03:16;101759.63;;;10.13;100.00
55916;BME280;41826;53.246;-6.670;2023-02-20T06:05:42;101755.28;;;10.12;100.00
55916;BME280;41826;53.246;-6.670;2023-02-20T06:08:07;101759.22;;;10.06;100.00
55916;BME280;41826;53.246;-6.670;2023-02-20T06:10:33;101756.75;;;10.16;100.00
55916;BME280;41826;53.246;-6.670;2023-02-20T06:12:58;101753.97;;;10.06;100.00
55916;BME280;41826;53.246;-6.670;2023-02-20T06:15:24;101748.34;;;9.99;100.00
55916;BME280;41826;53.246;-6.670;2023-02-20T06:17:50;101752.56;;;10.13;100.00
55916;BME280;41826;53.246;-6.670;2023-02-20T06:20:15;101747.44;;;10.12;100.00
55916;BME280;41826;53.246;-6.670;2023-02-20T06:22:42;101742.81;;;10.15;100.00
55916;BME280;41826;53.246;-6.670;2023-02-20T06:25:07;101744.56;;;10.15;100.00
55916;BME280;41826;53.246;-6.670;2023-02-20T06:27:33;101741.53;;;9.97;100.00
55916;BME280;41826;53.246;-6.670;2023-02-20T06:29:58;101736.56;;;10.05;100.00
55916;BME280;41826;53.246;-6.670;2023-02-20T06:32:24;101717.47;;;10.03;100.00
55916;BME280;41826;53.246;-6.670;2023-02-20T06:34:49;101709.47;;;10.05;100.00
55916;BME280;41826;53.246;-6.670;2023-02-20T06:37:15;101720.47;;;10.10;100.00
55916;BME280;41826;53.246;-6.670;2023-02-20T06:39:41;101719.03;;;10.06;100.00
55916;BME280;41826;53.246;-6.670;2023-02-20T06:42:10;101725.28;;;9.92;100.00
55916;BME280;41826;53.246;-6.670;2023-02-20T06:44:36;101698.97;;;9.93;100.00
55916;BME280;41826;53.246;-6.670;2023-02-20T06:47:01;101687.91;;;10.01;100.00
55916;BME280;41826;53.246;-6.670;2023-02-20T06:49:27;101685.50;;;9.98;100.00
55916;BME280;41826;53.246;-6.670;2023-02-20T06:51:53;101668.22;;;9.95;100.00
55916;BME280;41826;53.246;-6.670;2023-02-20T06:54:19;101671.81;;;10.06;100.00
55916;BME280;41826;53.246;-6.670;2023-02-20T06:56:47;101682.25;;;9.94;100.00
55916;BME280;41826;53.246;-6.670;2023-02-20T06:59:13;101670.38;;;10.02;100.00
55916;BME280;41826;53.246;-6.670;2023-02-20T07:01:41;101680.13;;;9.99;100.00
55916;BME280;41826;53.246;-6.670;2023-02-20T07:04:28;101674.28;;;9.96;100.00
55916;BME280;41826;53.246;-6.670;2023-02-20T07:06:55;101679.78;;;10.04;100.00
55916;BME280;41826;53.246;-6.670;2023-02-20T07:09:20;101677.75;;;9.96;100.00
55916;BME280;41826;53.246;-6.670;2023-02-20T07:11:46;101672.06;;;10.03;100.00
55916;BME280;41826;53.246;-6.670;2023-02-20T07:14:13;101668.22;;;10.07;100.00
55916;BME280;41826;53.246;-6.670;2023-02-20T07:16:38;101677.06;;;10.06;100.00
55916;BME280;41826;53.246;-6.670;2023-02-20T07:19:04;101673.72;;;10.15;100.00
55916;BME280;41826;53.246;-6.670;2023-02-20T07:21:29;101682.31;;;10.06;100.00
55916;BME280;41826;53.246;-6.670;2023-02-20T07:23:54;101682.31;;;10.06;100.00
55916;BME280;41826;53.246;-6.670;2023-02-20T07:26:22;101683.28;;;10.16;100.00
55916;BME280;41826;53.246;-6.670;2023-02-20T07:28:48;101698.69;;;10.20;100.00
55916;BME280;41826;53.246;-6.670;2023-02-20T07:31:13;101697.34;;;10.15;100.00
55916;BME280;41826;53.246;-6.670;2023-02-20T07:33:39;101690.19;;;10.17;100.00
55916;BME280;41826;53.246;-6.670;2023-02-20T07:36:07;101702.09;;;10.10;100.00
55916;BME280;41826;53.246;-6.670;2023-02-20T07:38:33;101691.13;;;10.05;100.00
55916;BME280;41826;53.246;-6.670;2023-02-20T07:40:58;101685.28;;;10.01;100.00
55916;BME280;41826;53.246;-6.670;2023-02-20T07:43:23;101683.00;;;9.96;100.00
55916;BME280;41826;53.246;-6.670;2023-02-20T07:45:49;101664.19;;;10.03;100.00
55916;BME280;41826;53.246;-6.670;2023-02-20T07:48:14;101653.56;;;10.04;100.00
55916;BME280;41826;53.246;-6.670;2023-02-20T07:50:39;101655.34;;;10.04;100.00
55916;BME280;41826;53.246;-6.670;2023-02-20T07:53:05;101646.66;;;10.03;100.00
55916;BME280;41826;53.246;-6.670;2023-02-20T07:55:30;101645.34;;;10.09;100.00
55916;BME280;41826;53.246;-6.670;2023-02-20T07:57:55;101626.00;;;10.10;100.00
55916;BME280;41826;53.246;-6.670;2023-02-20T08:00:23;101638.19;;;10.11;100.00
55916;BME280;41826;53.246;-6.670;2023-02-20T08:02:49;101648.34;;;10.15;100.00
55916;BME280;41826;53.246;-6.670;2023-02-20T08:05:15;101636.16;;;10.03;100.00
55916;BME280;41826;53.246;-6.670;2023-02-20T08:07:48;101661.56;;;10.25;100.00
55916;BME280;41826;53.246;-6.670;2023-02-20T08:10:16;101667.06;;;10.22;100.00
55916;BME280;41826;53.246;-6.670;2023-02-20T08:12:42;101666.34;;;10.09;100.00
55916;BME280;41826;53.246;-6.670;2023-02-20T08:15:07;101671.00;;;10.16;100.00
55916;BME280;41826;53.246;-6.670;2023-02-20T08:17:36;101677.84;;;10.30;100.00
55916;BME280;41826;53.246;-6.670;2023-02-20T08:20:02;101685.50;;;10.33;100.00
55916;BME280;41826;53.246;-6.670;2023-02-20T08:22:27;101702.63;;;10.26;100.00
55916;BME280;41826;53.246;-6.670;2023-02-20T08:24:53;101700.00;;;10.26;100.00
55916;BME280;41826;53.246;-6.670;2023-02-20T08:27:18;101689.88;;;10.33;100.00
55916;BME280;41826;53.246;-6.670;2023-02-20T08:29:44;101703.72;;;10.35;100.00
55916;BME280;41826;53.246;-6.670;2023-02-20T08:32:10;101704.41;;;10.26;100.00
55916;BME280;41826;53.246;-6.670;2023-02-20T08:34:35;101697.47;;;10.25;100.00
55916;BME280;41826;53.246;-6.670;2023-02-20T08:37:01;101699.91;;;10.28;100.00
55916;BME280;41826;53.246;-6.670;2023-02-20T08:39:26;101693.59;;;10.41;100.00
55916;BME280;41826;53.246;-6.670;2023-02-20T08:41:52;101697.78;;;10.44;100.00
55916;BME280;41826;53.246;-6.670;2023-02-20T08:44:17;101712.44;;;10.35;100.00
55916;BME280;41826;53.246;-6.670;2023-02-20T08:46:50;101708.53;;;10.41;100.00
55916;BME280;41826;53.246;-6.670;2023-02-20T08:49:16;101717.41;;;10.27;100.00
55916;BME280;41826;53.246;-6.670;2023-02-20T08:51:46;101702.66;;;10.37;100.00
55916;BME280;41826;53.246;-6.670;2023-02-20T08:54:13;101721.06;;;10.49;100.00
55916;BME280;41826;53.246;-6.670;2023-02-20T08:56:40;101720.81;;;10.52;100.00
55916;BME280;41826;53.246;-6.670;2023-02-20T08:59:06;101734.91;;;10.62;100.00
55916;BME280;41826;53.246;-6.670;2023-02-20T09:01:31;101739.94;;;10.54;100.00
55916;BME280;41826;53.246;-6.670;2023-02-20T09:03:57;101739.19;;;10.63;100.00
55916;BME280;41826;53.246;-6.670;2023-02-20T09:06:22;101738.13;;;10.54;100.00
55916;BME280;41826;53.246;-6.670;2023-02-20T09:08:51;101746.13;;;10.53;100.00
55916;BME280;41826;53.246;-6.670;2023-02-20T09:11:17;101741.22;;;10.71;100.00
55916;BME280;41826;53.246;-6.670;2023-02-20T09:13:46;101773.50;;;10.84;100.00
55916;BME280;41826;53.246;-6.670;2023-02-20T09:16:13;101776.13;;;10.84;100.00
55916;BME280;41826;53.246;-6.670;2023-02-20T09:18:39;101793.06;;;10.91;100.00
55916;BME280;41826;53.246;-6.670;2023-02-20T09:21:09;101794.13;;;10.77;100.00
55916;BME280;41826;53.246;-6.670;2023-02-20T09:23:35;101791.03;;;10.83;100.00
55916;BME280;41826;53.246;-6.670;2023-02-20T09:26:01;101793.19;;;10.90;100.00
55916;BME280;41826;53.246;-6.670;2023-02-20T09:28:26;101793.66;;;10.83;100.00
55916;BME280;41826;53.246;-6.670;2023-02-20T09:30:51;101806.34;;;10.90;100.00
55916;BME280;41826;53.246;-6.670;2023-02-20T09:33:19;101809.56;;;10.93;100.00
55916;BME280;41826;53.246;-6.670;2023-02-20T09:35:45;101798.94;;;10.95;100.00
55916;BME280;41826;53.246;-6.670;2023-02-20T09:38:13;101813.00;;;10.94;100.00
55916;BME280;41826;53.246;-6.670;2023-02-20T09:40:47;101807.16;;;10.90;100.00
55916;BME280;41826;53.246;-6.670;2023-02-20T09:43:16;101796.88;;;10.98;100.00
55916;BME280;41826;53.246;-6.670;2023-02-20T09:45:52;101805.25;;;11.03;100.00
55916;BME280;41826;53.246;-6.670;2023-02-20T09:48:42;101815.53;;;11.18;100.00
55916;BME280;41826;53.246;-6.670;2023-02-20T09:51:13;101821.75;;;11.17;100.00
55916;BME280;41826;53.246;-6.670;2023-02-20T09:53:56;101816.25;;;11.31;100.00
55916;BME280;41826;53.246;-6.670;2023-02-20T09:56:26;101816.38;;;11.30;100.00
55916;BME280;41826;53.246;-6.670;2023-02-20T10:01:25;101836.66;;;11.39;100.00
55916;BME280;41826;53.246;-6.670;2023-02-20T10:03:56;101846.81;;;11.43;100.00
55916;BME280;41826;53.246;-6.670;2023-02-20T10:06:28;101854.94;;;11.29;100.00
55916;BME280;41826;53.246;-6.670;2023-02-20T10:08:54;101845.75;;;11.46;100.00
55916;BME280;41826;53.246;-6.670;2023-02-20T10:19:48;101852.19;;;11.53;100.00
55916;BME280;41826;53.246;-6.670;2023-02-20T10:22:19;101871.31;;;11.44;100.00
55916;BME280;41826;53.246;-6.670;2023-02-20T10:27:40;101859.59;;;11.37;100.00
55916;BME280;41826;53.246;-6.670;2023-02-20T10:30:14;101854.97;;;11.40;100.00
55916;BME280;41826;53.246;-6.670;2023-02-20T10:32:50;101867.50;;;11.48;100.00
55916;BME280;41826;53.246;-6.670;2023-02-20T10:35:31;101869.91;;;11.40;100.00
55916;BME280;41826;53.246;-6.670;2023-02-20T10:38:06;101876.59;;;11.44;100.00
55916;BME280;41826;53.246;-6.670;2023-02-20T10:40:36;101875.97;;;11.52;100.00
55916;BME280;41826;53.246;-6.670;2023-02-20T10:43:21;101880.53;;;11.49;100.00
55916;BME280;41826;53.246;-6.670;2023-02-20T10:46:16;101874.06;;;11.65;100.00
55916;BME280;41826;53.246;-6.670;2023-02-20T10:48:44;101887.34;;;11.52;100.00
55916;BME280;41826;53.246;-6.670;2023-02-20T10:51:24;101900.25;;;11.44;100.00
55916;BME280;41826;53.246;-6.670;2023-02-20T10:53:59;101884.25;;;11.58;100.00
55916;BME280;41826;53.246;-6.670;2023-02-20T10:56:37;101897.38;;;11.69;100.00
55916;BME280;41826;53.246;-6.670;2023-02-20T10:59:15;101904.56;;;11.67;100.00
55916;BME280;41826;53.246;-6.670;2023-02-20T11:01:43;101905.50;;;11.78;100.00
55916;BME280;41826;53.246;-6.670;2023-02-20T11:04:21;101918.91;;;11.63;100.00
55916;BME280;41826;53.246;-6.670;2023-02-20T11:06:54;101916.25;;;11.75;100.00
55916;BME280;41826;53.246;-6.670;2023-02-20T11:09:21;101925.25;;;11.61;100.00
55916;BME280;41826;53.246;-6.670;2023-02-20T11:11:48;101923.44;;;11.61;100.00
55916;BME280;41826;53.246;-6.670;2023-02-20T11:14:23;101920.81;;;11.61;100.00
55916;BME280;41826;53.246;-6.670;2023-02-20T11:16:58;101922.00;;;11.68;100.00
55916;BME280;41826;53.246;-6.670;2023-02-20T11:19:30;101920.94;;;11.71;100.00
55916;BME280;41826;53.246;-6.670;2023-02-20T11:21:57;101928.25;;;11.67;100.00
55916;BME280;41826;53.246;-6.670;2023-02-20T11:26:49;101919.84;;;11.74;100.00
55916;BME280;41826;53.246;-6.670;2023-02-20T11:29:21;101911.25;;;11.83;100.00
55916;BME280;41826;53.246;-6.670;2023-02-20T11:31:47;101923.31;;;11.97;100.00
55916;BME280;41826;53.246;-6.670;2023-02-20T11:34:22;101926.56;;;12.00;100.00
55916;BME280;41826;53.246;-6.670;2023-02-20T11:36:51;101929.19;;;11.89;100.00
55916;BME280;41826;53.246;-6.670;2023-02-20T11:42:11;101937.44;;;11.50;100.00
55916;BME280;41826;53.246;-6.670;2023-02-20T11:44:39;101934.19;;;11.69;100.00
55916;BME280;41826;53.246;-6.670;2023-02-20T11:49:35;101939.69;;;11.66;100.00
55916;BME280;41826;53.246;-6.670;2023-02-20T11:52:27;101925.59;;;11.67;100.00
55916;BME280;41826;53.246;-6.670;2023-02-20T11:55:11;101929.91;;;11.68;100.00
55916;BME280;41826;53.246;-6.670;2023-02-20T11:57:43;101925.25;;;11.61;100.00
55916;BME280;41826;53.246;-6.670;2023-02-20T12:00:19;101928.94;;;11.69;100.00
55916;BME280;41826;53.246;-6.670;2023-02-20T12:03:11;101926.66;;;11.87;100.00
55916;BME280;41826;53.246;-6.670;2023-02-20T12:05:45;101935.53;;;11.98;100.00
55916;BME280;41826;53.246;-6.670;2023-02-20T12:11:13;101922.97;;;12.01;100.00
55916;BME280;41826;53.246;-6.670;2023-02-20T12:13:44;101924.88;;;12.10;100.00
55916;BME280;41826;53.246;-6.670;2023-02-20T12:24:11;101923.22;;;11.98;100.00
55916;BME280;41826;53.246;-6.670;2023-02-20T12:26:50;101918.06;;;11.97;100.00
55916;BME280;41826;53.246;-6.670;2023-02-20T12:29:36;101906.84;;;12.27;100.00
55916;BME280;41826;53.246;-6.670;2023-02-20T12:32:27;101917.19;;;12.19;100.00
55916;BME280;41826;53.246;-6.670;2023-02-20T12:35:01;101914.25;;;12.33;100.00
55916;BME280;41826;53.246;-6.670;2023-02-20T12:46:05;101927.75;;;12.40;100.00
55916;BME280;41826;53.246;-6.670;2023-02-20T12:51:10;101926.19;;;12.48;100.00
55916;BME280;41826;53.246;-6.670;2023-02-20T12:54:06;101952.66;;;12.35;100.00
55916;BME280;41826;53.246;-6.670;2023-02-20T12:59:23;101950.53;;;12.41;100.00
55916;BME280;41826;53.246;-6.670;2023-02-20T13:01:52;101934.72;;;12.41;100.00
55916;BME280;41826;53.246;-6.670;2023-02-20T13:04:41;101931.47;;;12.37;100.00
55916;BME280;41826;53.246;-6.670;2023-02-20T13:07:22;101918.34;;;12.58;100.00
55916;BME280;41826;53.246;-6.670;2023-02-20T13:09:57;101909.81;;;12.66;100.00
55916;BME280;41826;53.246;-6.670;2023-02-20T13:12:24;101927.09;;;12.58;100.00
55916;BME280;41826;53.246;-6.670;2023-02-20T13:17:43;101915.25;;;12.53;100.00
55916;BME280;41826;53.246;-6.670;2023-02-20T13:33:30;101940.97;;;12.28;100.00
55916;BME280;41826;53.246;-6.670;2023-02-20T13:35:56;101924.50;;;12.47;100.00
55916;BME280;41826;53.246;-6.670;2023-02-20T13:38:27;101922.84;;;12.46;100.00
55916;BME280;41826;53.246;-6.670;2023-02-20T13:45:48;101910.41;;;12.37;100.00
55916;BME280;41826;53.246;-6.670;2023-02-20T13:53:42;101896.00;;;12.73;100.00
55916;BME280;41826;53.246;-6.670;2023-02-20T13:59:07;101890.78;;;12.83;100.00
55916;BME280;41826;53.246;-6.670;2023-02-20T14:02:01;101890.03;;;12.71;100.00
55916;BME280;41826;53.246;-6.670;2023-02-20T14:04:27;101895.72;;;12.55;100.00
55916;BME280;41826;53.246;-6.670;2023-02-20T14:06:54;101884.13;;;12.79;100.00
55916;BME280;41826;53.246;-6.670;2023-02-20T14:09:26;101907.31;;;12.64;100.00
55916;BME280;41826;53.246;-6.670;2023-02-20T14:12:03;101898.25;;;12.78;100.00
55916;BME280;41826;53.246;-6.670;2023-02-20T14:14:34;101911.69;;;12.43;100.00
55916;BME280;41826;53.246;-6.670;2023-02-20T14:17:13;101903.44;;;12.47;100.00
55916;BME280;41826;53.246;-6.670;2023-02-20T14:19:45;101902.03;;;12.43;100.00
55916;BME280;41826;53.246;-6.670;2023-02-20T14:24:46;101894.13;;;12.64;100.00
55916;BME280;41826;53.246;-6.670;2023-02-20T14:27:31;101892.41;;;12.53;100.00
55916;BME280;41826;53.246;-6.670;2023-02-20T14:30:14;101899.47;;;12.74;100.00
55916;BME280;41826;53.246;-6.670;2023-02-20T14:32:49;101902.69;;;12.77;100.00
55916;BME280;41826;53.246;-6.670;2023-02-20T14:38:09;101902.22;;;12.72;100.00
55916;BME280;41826;53.246;-6.670;2023-02-20T14:40:42;101897.53;;;12.76;100.00
55916;BME280;41826;53.246;-6.670;2023-02-20T14:43:16;101887.66;;;12.89;100.00